Monday, February 18, 2019, 4:18 AM CST
Back to Local

KARR, Chicago Aurora Municipal

Location: Sugar Grove, IL, United States Lat: 41.767
Local Time: 4:18 AM CST (10:18 GMT) Lon: -88.467
Time Zone: US/Central Elev: 711 ft

Show me the last for .
Show Decoded

2019-02-18 03:52 METAR KARR 180952Z AUTO 34010KT 5SM BR BKN044 OVC100 M07/M08 A3006 RMK AO2 SNE45
                 SLP188 P0000 T10671083 TSNO =
2019-02-18 03:38 METAR KARR 180938Z AUTO 33011KT 3SM -SN BR OVC040 M06/M08 A3005 RMK AO2 P0000
                 T10611083 TSNO =
2019-02-18 03:11 METAR KARR 180911Z AUTO 33013KT 2 1/2SM -SN BR OVC035 M06/M08 A3004 RMK AO2
                 P0000 T10611083 TSNO =
2019-02-18 03:00 METAR KARR 180900Z AUTO 34012KT 3SM -SN BR OVC035 M06/M08 A3004 RMK AO2 P0000
                 T10611083 TSNO =
2019-02-18 02:52 METAR KARR 180852Z AUTO 33013KT 2 1/2SM -SN BR OVC035 M06/M08 A3003 RMK AO2
                 SNB0757 SLP180 P0000 60000 T10611083 51025 TSNO =
2019-02-18 02:35 METAR KARR 180835Z AUTO 34013KT 2SM -SN BR OVC035 M06/M08 A3003 RMK AO2 SNB0757
                 P0000 T10611083 TSNO =
2019-02-18 02:25 METAR KARR 180825Z AUTO 34013KT 1 3/4SM -SN BR OVC037 M06/M08 A3003 RMK AO2
                 SNB0757 P0000 T10611083 TSNO =
2019-02-18 02:18 METAR KARR 180818Z AUTO 34014KT 2SM -SN BR OVC039 M06/M08 A3003 RMK AO2 SNB0757
                 P0000 T10611083 TSNO =
2019-02-18 01:52 METAR KARR 180752Z AUTO 33014KT 7SM BKN049 OVC060 M06/M08 A3002 RMK AO2
                 SNE11B40E47 SLP175 P0000 T10611083 TSNO =
2019-02-18 00:52 METAR KARR 180652Z AUTO 33013KT 4SM -SN BR OVC045 M06/M08 A2999 RMK AO2 SLP165
                 P0000 T10611083 TSNO =
2019-02-18 00:17 METAR KARR 180617Z AUTO 33012KT 4SM -SN BR OVC047 M06/M08 A2997 RMK AO2 P0000
                 T10561078 TSNO =
2019-02-17 23:52 METAR KARR 180552Z AUTO 33013KT 2 1/2SM -SN BR OVC042 M06/M07 A2996 RMK AO2
                 SLP154 P0000 60000 T10561072 11028 21056 410171056 50014 TSNO =
2019-02-17 23:40 METAR KARR 180540Z AUTO 34012KT 3SM -SN BR OVC042 M05/M07 A2995 RMK AO2 P0000
                 T10501067 TSNO =
2019-02-17 23:25 METAR KARR 180525Z AUTO 34013KT 2 1/2SM -SN BR OVC036 M04/M07 A2995 RMK AO2
                 P0000 T10441067 TSNO =
2019-02-17 22:52 METAR KARR 180452Z AUTO 33013KT 3SM -SN BR OVC040 M04/M07 A2994 RMK AO2 SLP148
                 P0000 T10441067 TSNO =
2019-02-17 22:44 METAR KARR 180444Z AUTO 33009KT 2 1/2SM -SN BR OVC036 M04/M06 A2994 RMK AO2
                 P0000 T10391061 TSNO =
2019-02-17 21:52 METAR KARR 180352Z AUTO 35010KT 4SM -SN BR OVC042 M04/M06 A2992 RMK AO2 SLP140
                 P0000 T10391056 TSNO =
2019-02-17 20:52 METAR KARR 180252Z 36007KT 3SM -SN BR BKN055 OVC070 M03/M05 A2989 RMK AO2 SLP131
                 P0000 60000 T10331050 51016 =
2019-02-17 20:41 METAR KARR 180241Z 35008KT 3SM -SN BR BKN043 OVC070 M03/M05 A2989 RMK AO2 P0000
                 T10331050 =
2019-02-17 19:52 METAR KARR 180152Z 36007KT 2 1/2SM -SN BR BKN036 OVC049 M03/M05 A2988 RMK AO2
                 SLP127 P0000 T10331050 =
2019-02-17 19:22 METAR KARR 180122Z 01007KT 1 3/4SM -SN BR OVC030 M03/M04 A2988 RMK AO2 P0000
                 T10281044 =
2019-02-17 18:52 METAR KARR 180052Z 02007KT 2 1/2SM -SN BR FEW011 BKN028 OVC042 M03/M04 A2988 RMK
                 AO2 SLP126 P0000 T10281044 =
2019-02-17 17:52 METAR KARR 172352Z 03007KT 3SM -SN BR FEW011 BKN028 OVC042 M03/M04 A2984 RMK AO2
                 SLP115 P0000 60000 I6008 T10281044 11017 21028 53017 =
2019-02-17 16:52 METAR KARR 172252Z 04005KT 2SM -SN BR BKN009 OVC014 M02/M04 A2982 RMK AO2 CIG
                 006V011 SLP106 P0000 T10221044 =
2019-02-17 16:45 METAR KARR 172245Z 05006KT 1 3/4SM -SN BR BKN011 OVC017 M02/M04 A2982 RMK AO2
                 P0000 T10221044 =
2019-02-17 16:33 METAR KARR 172233Z 05007KT 2SM -SN BR BKN008 OVC015 M02/M04 A2982 RMK AO2 P0000
                 T10221044 =
2019-02-17 16:25 METAR KARR 172225Z 06005KT 1 3/4SM -SN BR BKN008 BKN013 OVC022 M02/M04 A2982 RMK
                 AO2 CIG 007V013 P0000 T10221044 =
2019-02-17 16:17 METAR KARR 172217Z 05005KT 1 3/4SM -SN BR SCT008 BKN014 OVC022 M02/M04 A2981 RMK
                 AO2 P0000 T10221044 =
2019-02-17 15:52 METAR KARR 172152Z 06005KT 2 1/2SM -SN BR SCT009 SCT017 OVC028 M02/M04 A2981 RMK
                 AO2 SNB20 SLP102 P0000 I1001 T10221044 =
2019-02-17 15:09 METAR KARR 172109Z 05010KT 2SM BR SCT007 BKN013 OVC019 M02/M04 A2979 RMK AO2
                 I1001 T10221044 =
2019-02-17 14:52 METAR KARR 172052Z 05011KT 1 1/2SM BR BKN008 OVC015 M02/M04 A2979 RMK AO2
                 FZRAB15E49 CIG 005V011 SLP098 P0000 60000 I1004 I3007 T10221039 56010 =
2019-02-17 14:21 METAR KARR 172021Z 08007KT 1 1/4SM -FZRA BR BKN008 OVC015 M02/M04 A2980 RMK AO2
                 FZRAB15 P0000 I1001 T10221039 =
2019-02-17 13:57 METAR KARR 171957Z 07008KT 1 1/4SM BR BKN008 OVC015 M02/M04 A2980 RMK AO2 CIG
                 006V012 T10221044 =
2019-02-17 13:52 METAR KARR 171952Z 06007KT 2SM BR BKN008 OVC013 M02/M04 A2980 RMK AO2 SNB41E51
                 CIG 006V010 SLP100 P0000 I1002 T10221039 =
2019-02-17 13:28 METAR KARR 171928Z 06009KT 2SM BR SCT008 OVC013 M02/M04 A2980 RMK AO2 I1001
                 T10221044 =
2019-02-17 12:52 METAR KARR 171852Z 06008KT 2SM BR OVC012 M02/M04 A2981 RMK AO2
                 UPE18B20E34FZRAB34E38SNB19E20 SLP103 P0000 I1001 T10221044 =
2019-02-17 12:18 METAR KARR 171818Z 06009KT 2 1/2SM OVC014 M02/M05 A2981 RMK AO2 UPE18 P0000
                 I1000 T10221050 =
2019-02-17 11:52 METAR KARR 171752Z 07009KT 4SM UP OVC014 M02/M06 A2983 RMK AO2
                 UPB02E08B52SNB08E52 SLP109 P0000 60000 T10221056 11022 21044 58008 =
2019-02-17 11:36 METAR KARR 171736Z 06010KT 4SM -SN OVC015 M03/M06 A2984 RMK AO2 UPB02E08SNB08
                 P0000 T10281056 =
2019-02-17 11:02 METAR KARR 171702Z 08011KT 4SM UP BKN013 BKN027 OVC050 M03/M06 A2984 RMK AO2
                 UPB02 P0000 T10281056 =
2019-02-17 10:52 METAR KARR 171652Z 08010KT 4SM HZ SCT013 BKN025 OVC050 M03/M06 A2984 RMK AO2
                 SNE46 SLP115 P0000 T10281056 =
2019-02-17 10:48 METAR KARR 171648Z 08009KT 4SM HZ FEW013 BKN025 OVC050 M03/M06 A2984 RMK AO2
                 SNE46 P0000 =
2019-02-17 10:39 METAR KARR 171639Z 08011KT 2SM -SN FEW011 BKN031 OVC050 M03/M06 A2984 RMK AO2
                 P0000 T10281056 =
2019-02-17 10:28 METAR KARR 171628Z 08010KT 1 1/2SM -SN BR FEW013 BKN017 OVC065 M03/M06 A2984 RMK
                 AO2 P0000 T10331056 =
2019-02-17 10:09 METAR KARR 171609Z 08010KT 3/4SM -SN OVC015 M03/M06 A2984 RMK AO2 P0000
                 T10331061 =
2019-02-17 09:52 METAR KARR 171552Z 07012KT 2 1/2SM -SN BR SCT012 BKN017 OVC050 M03/M06 A2984 RMK
                 AO2 SLP115 P0000 T10331056 =
2019-02-17 09:40 METAR KARR 171540Z 08010KT 1SM -SN BR FEW011 BKN015 OVC045 M03/M06 A2984 RMK AO2
                 P0000 T10331056 =
2019-02-17 09:38 METAR KARR 171538Z 07010KT 3/4SM -SN BR VV014 M03/M06 A2984 RMK AO2 P0000
                 T10331056 =
2019-02-17 09:20 METAR KARR 171520Z 07011KT 3/4SM -SN BR BKN018 OVC070 M04/M06 A2983 RMK AO2
                 P0000 T10391061 =
2019-02-17 09:08 METAR KARR 171508Z 07013KT 1 3/4SM -SN BR BKN026 OVC070 M04/M06 A2984 RMK AO2
                 P0000 T10391061 =
2019-02-17 08:58 METAR KARR 171458Z 07013KT 2SM -SN BR FEW009 SCT022 OVC070 M04/M06 A2984 RMK AO2
                 P0000 T10391061 =
2019-02-17 08:52 METAR KARR 171452Z 08011KT 1SM -SN BR FEW010 BKN024 OVC070 M04/M06 A2985 RMK AO2
                 SLP117 P0000 60000 T10391061 58007 =
2019-02-17 08:40 METAR KARR 171440Z 07012KT 1 1/4SM -SN BR FEW009 BKN028 OVC036 M04/M06 A2986 RMK
                 AO2 P0000 T10391061 =
2019-02-17 08:21 METAR KARR 171421Z 07010KT 1SM -SN BR OVC024 M04/M06 A2986 RMK AO2 P0000
                 T10441061 =
2019-02-17 08:02 METAR KARR 171402Z 07012KT 1/2SM SN FZFG VV012 M04/M06 A2986 RMK AO2 P0000
                 T10441061 =
2019-02-17 07:52 METAR KARR 171352Z 08010KT 1/2SM SN FZFG VV016 M04/M06 A2986 RMK AO2 SLP121
                 P0000 T10441061 =
2019-02-17 07:40 METAR KARR 171340Z 08011KT 3/4SM -SN OVC024 M04/M07 A2986 RMK AO2 P0000
                 T10391067 =
2019-02-17 07:17 METAR KARR 171317Z 08009KT 1 3/4SM -SN BKN040 OVC070 M04/M07 A2987 RMK AO2 P0000
                 T10391067 =
2019-02-17 06:52 METAR KARR 171252Z AUTO 09009KT 5SM -SN BR BKN042 OVC070 M04/M06 A2987 RMK AO2
                 SLP124 P0000 T10441061 TSNO =
2019-02-17 06:48 METAR KARR 171248Z AUTO 09009KT 4SM -SN BR BKN042 OVC070 M04/M06 A2987 RMK AO2
                 P0000 TSNO =
2019-02-17 06:34 METAR KARR 171234Z AUTO 08010KT 2SM -SN BR OVC030 M04/M07 A2986 RMK AO2 P0000
                 T10441067 TSNO =
2019-02-17 06:24 METAR KARR 171224Z AUTO 09011KT 1 1/4SM -SN BR OVC020 M04/M07 A2987 RMK AO2
                 P0000 T10441067 TSNO =
2019-02-17 06:13 METAR KARR 171213Z AUTO 09009KT 1SM -SN BR VV014 M04/M06 A2988 RMK AO2 P0000
                 T10441061 TSNO =
2019-02-17 05:56 METAR KARR 171156Z AUTO 08009KT 1SM -SN BR VV015 M04/M07 A2987 RMK AO2 P0000
                 T10441067 TSNO =
2019-02-17 05:50 METAR KARR 171150Z AUTO 08010KT 3/4SM -SN BR VV013 M04/M07 A2987 RMK AO2 SLP125
                 P0000 60000 T10441067 11028 21044 58012 TSNO =
2019-02-17 05:49 METAR KARR 171149Z AUTO 08010KT 3/4SM -SN BR VV013 M04/M07 A2987 RMK AO2 P0000
                 TSNO =
2019-02-17 05:25 METAR KARR 171125Z AUTO 09009KT 1 1/4SM -SN BR OVC021 M04/M07 A2990 RMK AO2
                 P0000 T10441067 TSNO =
2019-02-17 05:15 METAR KARR 171115Z AUTO 09009KT 2 1/2SM -SN OVC029 M04/M07 A2990 RMK AO2 P0000
                 T10441072 TSNO =
2019-02-17 05:07 METAR KARR 171107Z AUTO 09008KT 3SM -SN FEW017 OVC033 M04/M07 A2991 RMK AO2
                 P0000 T10441072 TSNO =
2019-02-17 04:52 METAR KARR 171052Z AUTO 08009KT 2 1/2SM -SN SCT017 OVC041 M04/M07 A2991 RMK AO2
                 SNB28 SLP136 P0000 T10391072 TSNO =
2019-02-17 04:47 METAR KARR 171047Z AUTO 08008KT 2SM -SN BKN017 OVC036 M04/M08 A2991 RMK AO2
                 SNB28 P0000 TSNO =
2019-02-17 04:33 METAR KARR 171033Z AUTO 09011KT 5SM -SN BKN018 BKN032 OVC044 M04/M08 A2993 RMK
                 AO2 SNB28 P0000 T10391078 TSNO =

Support USWX by starting your Amazon purchase here.